sensor_id;sensor_type;location;lat;lon;timestamp;P1;durP1;ratioP1;P2;durP2;ratioP2
13279;SDS011;6708;49.814;8.652;2023-05-23T00:00:34;16.00;;;14.43;;
13279;SDS011;6708;49.814;8.652;2023-05-23T00:03:02;14.13;;;12.57;;
13279;SDS011;6708;49.814;8.652;2023-05-23T00:05:31;17.90;;;14.33;;
13279;SDS011;6708;49.814;8.652;2023-05-23T00:07:59;19.80;;;15.93;;
13279;SDS011;6708;49.814;8.652;2023-05-23T00:10:28;16.97;;;15.27;;
13279;SDS011;6708;49.814;8.652;2023-05-23T00:12:58;17.53;;;15.70;;
13279;SDS011;6708;49.814;8.652;2023-05-23T00:15:27;21.53;;;15.27;;
13279;SDS011;6708;49.814;8.652;2023-05-23T00:17:55;19.50;;;14.93;;
13279;SDS011;6708;49.814;8.652;2023-05-23T00:20:24;15.63;;;14.00;;
13279;SDS011;6708;49.814;8.652;2023-05-23T00:22:53;17.77;;;15.20;;
13279;SDS011;6708;49.814;8.652;2023-05-23T00:25:22;17.47;;;15.77;;
13279;SDS011;6708;49.814;8.652;2023-05-23T00:28:00;22.97;;;17.33;;
13279;SDS011;6708;49.814;8.652;2023-05-23T00:30:29;24.40;;;16.20;;
13279;SDS011;6708;49.814;8.652;2023-05-23T00:32:58;20.07;;;16.47;;
13279;SDS011;6708;49.814;8.652;2023-05-23T00:35:27;18.20;;;15.77;;
13279;SDS011;6708;49.814;8.652;2023-05-23T00:37:55;20.00;;;15.87;;
13279;SDS011;6708;49.814;8.652;2023-05-23T00:40:24;21.23;;;17.67;;
13279;SDS011;6708;49.814;8.652;2023-05-23T00:42:52;16.93;;;15.33;;
13279;SDS011;6708;49.814;8.652;2023-05-23T00:45:23;16.90;;;14.87;;
13279;SDS011;6708;49.814;8.652;2023-05-23T00:47:51;21.97;;;17.43;;
13279;SDS011;6708;49.814;8.652;2023-05-23T00:50:20;18.77;;;16.97;;
13279;SDS011;6708;49.814;8.652;2023-05-23T00:52:49;18.10;;;16.30;;
13279;SDS011;6708;49.814;8.652;2023-05-23T00:55:17;18.37;;;16.57;;
13279;SDS011;6708;49.814;8.652;2023-05-23T00:57:46;19.60;;;17.53;;
13279;SDS011;6708;49.814;8.652;2023-05-23T01:00:14;19.30;;;17.30;;
13279;SDS011;6708;49.814;8.652;2023-05-23T01:02:46;18.70;;;16.80;;
13279;SDS011;6708;49.814;8.652;2023-05-23T01:05:17;19.03;;;17.03;;
13279;SDS011;6708;49.814;8.652;2023-05-23T01:07:47;21.53;;;19.23;;
13279;SDS011;6708;49.814;8.652;2023-05-23T01:10:16;21.23;;;18.47;;
13279;SDS011;6708;49.814;8.652;2023-05-23T01:12:49;22.87;;;19.37;;
13279;SDS011;6708;49.814;8.652;2023-05-23T01:15:25;21.20;;;19.00;;
13279;SDS011;6708;49.814;8.652;2023-05-23T01:18:00;21.87;;;19.17;;
13279;SDS011;6708;49.814;8.652;2023-05-23T01:20:33;21.13;;;18.93;;
13279;SDS011;6708;49.814;8.652;2023-05-23T01:26:08;20.73;;;18.63;;
13279;SDS011;6708;49.814;8.652;2023-05-23T01:28:47;23.70;;;20.40;;
13279;SDS011;6708;49.814;8.652;2023-05-23T01:31:18;24.80;;;18.20;;
13279;SDS011;6708;49.814;8.652;2023-05-23T01:33:46;18.87;;;16.93;;
13279;SDS011;6708;49.814;8.652;2023-05-23T01:36:17;20.23;;;18.07;;
13279;SDS011;6708;49.814;8.652;2023-05-23T01:38:46;20.07;;;18.00;;
13279;SDS011;6708;49.814;8.652;2023-05-23T01:41:15;22.17;;;17.83;;
13279;SDS011;6708;49.814;8.652;2023-05-23T01:43:43;24.27;;;20.60;;
13279;SDS011;6708;49.814;8.652;2023-05-23T01:46:14;36.50;;;18.20;;
13279;SDS011;6708;49.814;8.652;2023-05-23T01:48:44;21.13;;;19.03;;
13279;SDS011;6708;49.814;8.652;2023-05-23T01:51:13;21.07;;;18.87;;
13279;SDS011;6708;49.814;8.652;2023-05-23T01:53:41;19.53;;;17.53;;
13279;SDS011;6708;49.814;8.652;2023-05-23T01:56:10;21.43;;;19.17;;
13279;SDS011;6708;49.814;8.652;2023-05-23T01:58:38;20.50;;;18.47;;
13279;SDS011;6708;49.814;8.652;2023-05-23T02:01:07;21.30;;;18.27;;
13279;SDS011;6708;49.814;8.652;2023-05-23T02:03:38;24.20;;;20.40;;
13279;SDS011;6708;49.814;8.652;2023-05-23T02:06:07;22.17;;;19.70;;
13279;SDS011;6708;49.814;8.652;2023-05-23T02:08:35;27.17;;;20.77;;
13279;SDS011;6708;49.814;8.652;2023-05-23T02:11:03;20.17;;;18.03;;
13279;SDS011;6708;49.814;8.652;2023-05-23T02:13:32;19.70;;;17.70;;
13279;SDS011;6708;49.814;8.652;2023-05-23T02:16:01;21.17;;;18.73;;
13279;SDS011;6708;49.814;8.652;2023-05-23T02:18:30;20.87;;;18.47;;
13279;SDS011;6708;49.814;8.652;2023-05-23T02:21:05;22.10;;;19.33;;
13279;SDS011;6708;49.814;8.652;2023-05-23T02:23:36;21.43;;;19.13;;
13279;SDS011;6708;49.814;8.652;2023-05-23T02:26:04;22.60;;;20.27;;
13279;SDS011;6708;49.814;8.652;2023-05-23T02:28:34;21.77;;;19.00;;
13279;SDS011;6708;49.814;8.652;2023-05-23T02:31:02;22.80;;;18.90;;
13279;SDS011;6708;49.814;8.652;2023-05-23T02:33:30;25.70;;;20.53;;
13279;SDS011;6708;49.814;8.652;2023-05-23T02:35:59;23.00;;;19.03;;
13279;SDS011;6708;49.814;8.652;2023-05-23T02:38:31;21.67;;;18.47;;
13279;SDS011;6708;49.814;8.652;2023-05-23T02:40:59;22.43;;;20.13;;
13279;SDS011;6708;49.814;8.652;2023-05-23T02:43:28;23.93;;;19.23;;
13279;SDS011;6708;49.814;8.652;2023-05-23T02:45:57;19.43;;;17.60;;
13279;SDS011;6708;49.814;8.652;2023-05-23T02:48:25;20.17;;;18.00;;
13279;SDS011;6708;49.814;8.652;2023-05-23T02:50:53;22.27;;;17.87;;
13279;SDS011;6708;49.814;8.652;2023-05-23T02:53:22;21.87;;;19.77;;
13279;SDS011;6708;49.814;8.652;2023-05-23T02:55:53;22.67;;;18.00;;
13279;SDS011;6708;49.814;8.652;2023-05-23T02:58:22;21.47;;;18.53;;
13279;SDS011;6708;49.814;8.652;2023-05-23T03:00:50;18.47;;;16.57;;
13279;SDS011;6708;49.814;8.652;2023-05-23T03:03:19;19.77;;;17.77;;
13279;SDS011;6708;49.814;8.652;2023-05-23T03:05:47;18.97;;;16.47;;
13279;SDS011;6708;49.814;8.652;2023-05-23T03:08:16;20.17;;;17.43;;
13279;SDS011;6708;49.814;8.652;2023-05-23T03:10:44;18.60;;;16.73;;
13279;SDS011;6708;49.814;8.652;2023-05-23T03:13:15;19.03;;;17.00;;
13279;SDS011;6708;49.814;8.652;2023-05-23T03:15:44;18.13;;;16.33;;
13279;SDS011;6708;49.814;8.652;2023-05-23T03:18:13;19.20;;;17.10;;
13279;SDS011;6708;49.814;8.652;2023-05-23T03:20:41;16.53;;;15.07;;
13279;SDS011;6708;49.814;8.652;2023-05-23T03:23:09;16.87;;;15.20;;
13279;SDS011;6708;49.814;8.652;2023-05-23T03:25:38;18.70;;;15.87;;
13279;SDS011;6708;49.814;8.652;2023-05-23T03:28:06;19.83;;;18.00;;
13279;SDS011;6708;49.814;8.652;2023-05-23T03:30:38;18.80;;;16.80;;
13279;SDS011;6708;49.814;8.652;2023-05-23T03:33:07;19.23;;;17.20;;
13279;SDS011;6708;49.814;8.652;2023-05-23T03:35:36;17.67;;;15.87;;
13279;SDS011;6708;49.814;8.652;2023-05-23T03:38:04;16.73;;;15.13;;
13279;SDS011;6708;49.814;8.652;2023-05-23T03:40:33;18.17;;;16.37;;
13279;SDS011;6708;49.814;8.652;2023-05-23T03:43:01;17.90;;;16.00;;
13279;SDS011;6708;49.814;8.652;2023-05-23T03:45:32;17.23;;;15.63;;
13279;SDS011;6708;49.814;8.652;2023-05-23T03:48:06;17.33;;;15.43;;
13279;SDS011;6708;49.814;8.652;2023-05-23T03:50:35;14.97;;;13.67;;
13279;SDS011;6708;49.814;8.652;2023-05-23T03:53:05;16.87;;;15.47;;
13279;SDS011;6708;49.814;8.652;2023-05-23T03:55:34;14.47;;;13.27;;
13279;SDS011;6708;49.814;8.652;2023-05-23T03:58:02;13.57;;;12.40;;
13279;SDS011;6708;49.814;8.652;2023-05-23T04:00:31;15.20;;;13.80;;
13279;SDS011;6708;49.814;8.652;2023-05-23T04:03:02;11.90;;;10.83;;
13279;SDS011;6708;49.814;8.652;2023-05-23T04:05:36;11.73;;;10.70;;
13279;SDS011;6708;49.814;8.652;2023-05-23T04:08:04;10.17;;;9.27;;
13279;SDS011;6708;49.814;8.652;2023-05-23T04:10:34;9.90;;;9.10;;
13279;SDS011;6708;49.814;8.652;2023-05-23T04:13:02;9.37;;;8.57;;
13279;SDS011;6708;49.814;8.652;2023-05-23T04:15:31;8.20;;;7.57;;
13279;SDS011;6708;49.814;8.652;2023-05-23T04:18:06;8.37;;;7.57;;
13279;SDS011;6708;49.814;8.652;2023-05-23T04:20:38;8.17;;;7.53;;
13279;SDS011;6708;49.814;8.652;2023-05-23T04:23:07;8.93;;;8.13;;
13279;SDS011;6708;49.814;8.652;2023-05-23T04:25:38;7.13;;;6.53;;
13279;SDS011;6708;49.814;8.652;2023-05-23T04:28:28;7.83;;;7.23;;
13279;SDS011;6708;49.814;8.652;2023-05-23T04:30:56;7.73;;;7.07;;
13279;SDS011;6708;49.814;8.652;2023-05-23T04:33:28;7.77;;;7.17;;
13279;SDS011;6708;49.814;8.652;2023-05-23T04:36:00;8.27;;;7.53;;
13279;SDS011;6708;49.814;8.652;2023-05-23T04:38:29;8.37;;;7.57;;
13279;SDS011;6708;49.814;8.652;2023-05-23T04:40:59;11.13;;;8.10;;
13279;SDS011;6708;49.814;8.652;2023-05-23T04:43:46;7.67;;;6.97;;
13279;SDS011;6708;49.814;8.652;2023-05-23T04:46:24;9.33;;;8.43;;
13279;SDS011;6708;49.814;8.652;2023-05-23T04:49:05;10.13;;;9.20;;
13279;SDS011;6708;49.814;8.652;2023-05-23T04:51:37;9.53;;;8.73;;
13279;SDS011;6708;49.814;8.652;2023-05-23T04:54:34;10.40;;;9.40;;
13279;SDS011;6708;49.814;8.652;2023-05-23T04:57:04;8.50;;;7.90;;
13279;SDS011;6708;49.814;8.652;2023-05-23T04:59:33;11.13;;;10.03;;
13279;SDS011;6708;49.814;8.652;2023-05-23T05:02:02;10.30;;;9.50;;
13279;SDS011;6708;49.814;8.652;2023-05-23T05:04:31;10.50;;;9.57;;
13279;SDS011;6708;49.814;8.652;2023-05-23T05:07:03;10.93;;;9.10;;
13279;SDS011;6708;49.814;8.652;2023-05-23T05:09:32;10.03;;;9.13;;
13279;SDS011;6708;49.814;8.652;2023-05-23T05:12:01;11.10;;;10.20;;
13279;SDS011;6708;49.814;8.652;2023-05-23T05:14:29;11.57;;;10.57;;
13279;SDS011;6708;49.814;8.652;2023-05-23T05:16:58;10.67;;;9.70;;
13279;SDS011;6708;49.814;8.652;2023-05-23T05:19:34;11.23;;;10.13;;
13279;SDS011;6708;49.814;8.652;2023-05-23T05:22:07;11.10;;;10.17;;
13279;SDS011;6708;49.814;8.652;2023-05-23T05:24:36;10.73;;;9.93;;
13279;SDS011;6708;49.814;8.652;2023-05-23T05:27:05;11.70;;;10.77;;
13279;SDS011;6708;49.814;8.652;2023-05-23T05:29:34;10.60;;;9.60;;
13279;SDS011;6708;49.814;8.652;2023-05-23T05:32:03;11.10;;;10.10;;
13279;SDS011;6708;49.814;8.652;2023-05-23T05:34:33;9.87;;;9.07;;
13279;SDS011;6708;49.814;8.652;2023-05-23T05:37:02;10.77;;;9.67;;
13279;SDS011;6708;49.814;8.652;2023-05-23T05:39:33;9.43;;;8.73;;
13279;SDS011;6708;49.814;8.652;2023-05-23T05:42:02;10.40;;;9.10;;
13279;SDS011;6708;49.814;8.652;2023-05-23T05:44:31;9.00;;;8.30;;
13279;SDS011;6708;49.814;8.652;2023-05-23T05:47:00;8.93;;;8.23;;
13279;SDS011;6708;49.814;8.652;2023-05-23T05:49:29;9.60;;;8.77;;
13279;SDS011;6708;49.814;8.652;2023-05-23T05:51:57;8.40;;;7.80;;
13279;SDS011;6708;49.814;8.652;2023-05-23T05:54:26;9.20;;;8.47;;
13279;SDS011;6708;49.814;8.652;2023-05-23T05:56:57;9.00;;;8.37;;
13279;SDS011;6708;49.814;8.652;2023-05-23T05:59:25;8.73;;;8.00;;
13279;SDS011;6708;49.814;8.652;2023-05-23T06:01:54;8.40;;;7.80;;
13279;SDS011;6708;49.814;8.652;2023-05-23T06:04:22;9.13;;;8.43;;
13279;SDS011;6708;49.814;8.652;2023-05-23T06:06:52;8.93;;;8.03;;
13279;SDS011;6708;49.814;8.652;2023-05-23T06:09:20;8.83;;;8.13;;
13279;SDS011;6708;49.814;8.652;2023-05-23T06:11:48;9.73;;;9.00;;
13279;SDS011;6708;49.814;8.652;2023-05-23T06:16:50;8.47;;;7.87;;
13279;SDS011;6708;49.814;8.652;2023-05-23T06:19:19;9.80;;;8.17;;
13279;SDS011;6708;49.814;8.652;2023-05-23T06:21:47;8.97;;;8.27;;
13279;SDS011;6708;49.814;8.652;2023-05-23T06:24:15;9.53;;;8.57;;
13279;SDS011;6708;49.814;8.652;2023-05-23T06:26:45;7.93;;;7.23;;
13279;SDS011;6708;49.814;8.652;2023-05-23T06:29:13;8.13;;;7.33;;
13279;SDS011;6708;49.814;8.652;2023-05-23T06:31:44;7.97;;;7.27;;
13279;SDS011;6708;49.814;8.652;2023-05-23T06:34:13;7.83;;;7.13;;
13279;SDS011;6708;49.814;8.652;2023-05-23T06:36:41;6.33;;;5.93;;
13279;SDS011;6708;49.814;8.652;2023-05-23T06:39:11;6.27;;;5.83;;
13279;SDS011;6708;49.814;8.652;2023-05-23T06:41:39;6.13;;;5.73;;
13279;SDS011;6708;49.814;8.652;2023-05-23T06:44:08;5.10;;;4.70;;
13279;SDS011;6708;49.814;8.652;2023-05-23T06:46:39;4.83;;;4.53;;
13279;SDS011;6708;49.814;8.652;2023-05-23T06:49:13;5.03;;;4.63;;
13279;SDS011;6708;49.814;8.652;2023-05-23T06:51:43;4.40;;;4.10;;
13279;SDS011;6708;49.814;8.652;2023-05-23T06:54:12;5.13;;;4.67;;
13279;SDS011;6708;49.814;8.652;2023-05-23T06:56:40;4.60;;;4.33;;
13279;SDS011;6708;49.814;8.652;2023-05-23T06:59:08;5.13;;;4.73;;
13279;SDS011;6708;49.814;8.652;2023-05-23T07:01:38;5.00;;;4.70;;
13279;SDS011;6708;49.814;8.652;2023-05-23T07:04:06;5.10;;;4.73;;
13279;SDS011;6708;49.814;8.652;2023-05-23T07:06:38;4.77;;;4.53;;
13279;SDS011;6708;49.814;8.652;2023-05-23T07:09:07;5.67;;;4.93;;
13279;SDS011;6708;49.814;8.652;2023-05-23T07:11:36;4.83;;;4.53;;
13279;SDS011;6708;49.814;8.652;2023-05-23T07:14:07;4.60;;;4.37;;
13279;SDS011;6708;49.814;8.652;2023-05-23T07:16:39;4.53;;;4.23;;
13279;SDS011;6708;49.814;8.652;2023-05-23T07:19:07;5.97;;;4.47;;
13279;SDS011;6708;49.814;8.652;2023-05-23T07:21:45;7.63;;;4.10;;
13279;SDS011;6708;49.814;8.652;2023-05-23T07:24:16;4.20;;;3.97;;
13279;SDS011;6708;49.814;8.652;2023-05-23T07:26:44;3.73;;;3.53;;
13279;SDS011;6708;49.814;8.652;2023-05-23T07:29:13;4.10;;;3.80;;
13279;SDS011;6708;49.814;8.652;2023-05-23T07:31:44;4.53;;;4.23;;
13279;SDS011;6708;49.814;8.652;2023-05-23T07:34:13;4.37;;;4.17;;
13279;SDS011;6708;49.814;8.652;2023-05-23T07:36:52;3.87;;;3.67;;
13279;SDS011;6708;49.814;8.652;2023-05-23T07:39:22;4.30;;;4.00;;
13279;SDS011;6708;49.814;8.652;2023-05-23T07:41:53;4.90;;;4.17;;
13279;SDS011;6708;49.814;8.652;2023-05-23T07:44:21;3.97;;;3.77;;
13279;SDS011;6708;49.814;8.652;2023-05-23T07:46:50;3.83;;;3.63;;
13279;SDS011;6708;49.814;8.652;2023-05-23T07:49:18;4.83;;;4.20;;
13279;SDS011;6708;49.814;8.652;2023-05-23T07:51:46;4.33;;;3.93;;
13279;SDS011;6708;49.814;8.652;2023-05-23T07:54:17;4.47;;;4.13;;
13279;SDS011;6708;49.814;8.652;2023-05-23T07:56:49;4.83;;;4.53;;
13279;SDS011;6708;49.814;8.652;2023-05-23T07:59:17;4.70;;;4.30;;
13279;SDS011;6708;49.814;8.652;2023-05-23T08:01:48;4.37;;;4.07;;
13279;SDS011;6708;49.814;8.652;2023-05-23T08:04:19;4.60;;;4.30;;
13279;SDS011;6708;49.814;8.652;2023-05-23T08:06:52;4.27;;;3.97;;
13279;SDS011;6708;49.814;8.652;2023-05-23T08:09:25;4.80;;;4.50;;
13279;SDS011;6708;49.814;8.652;2023-05-23T08:11:56;4.27;;;4.00;;
13279;SDS011;6708;49.814;8.652;2023-05-23T08:14:24;5.17;;;4.13;;
13279;SDS011;6708;49.814;8.652;2023-05-23T08:17:07;4.10;;;3.80;;
13279;SDS011;6708;49.814;8.652;2023-05-23T08:19:36;3.67;;;3.50;;
13279;SDS011;6708;49.814;8.652;2023-05-23T08:22:04;3.77;;;3.57;;
13279;SDS011;6708;49.814;8.652;2023-05-23T08:24:35;4.10;;;3.83;;
13279;SDS011;6708;49.814;8.652;2023-05-23T08:27:04;3.93;;;3.73;;
13279;SDS011;6708;49.814;8.652;2023-05-23T08:29:34;4.93;;;3.77;;
13279;SDS011;6708;49.814;8.652;2023-05-23T08:32:03;3.37;;;3.10;;
13279;SDS011;6708;49.814;8.652;2023-05-23T08:34:33;2.93;;;2.80;;
13279;SDS011;6708;49.814;8.652;2023-05-23T08:37:02;5.63;;;3.03;;
13279;SDS011;6708;49.814;8.652;2023-05-23T08:39:30;3.17;;;2.97;;
13279;SDS011;6708;49.814;8.652;2023-05-23T08:42:21;2.77;;;2.57;;
13279;SDS011;6708;49.814;8.652;2023-05-23T08:44:50;3.30;;;3.10;;
13279;SDS011;6708;49.814;8.652;2023-05-23T08:47:19;4.73;;;3.57;;
13279;SDS011;6708;49.814;8.652;2023-05-23T08:49:52;3.40;;;3.20;;
13279;SDS011;6708;49.814;8.652;2023-05-23T08:52:23;3.43;;;3.33;;
13279;SDS011;6708;49.814;8.652;2023-05-23T08:54:54;3.40;;;3.20;;
13279;SDS011;6708;49.814;8.652;2023-05-23T08:57:26;3.30;;;3.10;;
13279;SDS011;6708;49.814;8.652;2023-05-23T09:00:00;3.20;;;3.00;;
13279;SDS011;6708;49.814;8.652;2023-05-23T09:02:29;3.57;;;3.30;;
13279;SDS011;6708;49.814;8.652;2023-05-23T09:05:08;3.30;;;3.10;;
13279;SDS011;6708;49.814;8.652;2023-05-23T09:07:37;3.47;;;3.27;;
13279;SDS011;6708;49.814;8.652;2023-05-23T09:10:07;3.87;;;3.47;;
13279;SDS011;6708;49.814;8.652;2023-05-23T09:12:39;3.40;;;3.20;;
13279;SDS011;6708;49.814;8.652;2023-05-23T09:15:08;3.90;;;3.70;;
13279;SDS011;6708;49.814;8.652;2023-05-23T09:17:38;3.40;;;3.10;;
13279;SDS011;6708;49.814;8.652;2023-05-23T09:20:10;3.20;;;3.00;;
13279;SDS011;6708;49.814;8.652;2023-05-23T09:22:45;3.27;;;2.97;;
13279;SDS011;6708;49.814;8.652;2023-05-23T09:25:17;3.23;;;2.40;;
13279;SDS011;6708;49.814;8.652;2023-05-23T09:27:50;2.70;;;2.60;;
13279;SDS011;6708;49.814;8.652;2023-05-23T09:30:20;2.77;;;2.67;;
13279;SDS011;6708;49.814;8.652;2023-05-23T09:32:58;3.47;;;3.27;;
13279;SDS011;6708;49.814;8.652;2023-05-23T09:35:28;3.10;;;2.90;;
13279;SDS011;6708;49.814;8.652;2023-05-23T09:37:57;3.50;;;3.30;;
13279;SDS011;6708;49.814;8.652;2023-05-23T09:40:30;3.33;;;3.13;;
13279;SDS011;6708;49.814;8.652;2023-05-23T09:43:04;3.00;;;2.80;;
13279;SDS011;6708;49.814;8.652;2023-05-23T09:45:33;2.93;;;2.73;;
13279;SDS011;6708;49.814;8.652;2023-05-23T09:48:03;3.17;;;2.90;;
13279;SDS011;6708;49.814;8.652;2023-05-23T09:50:32;4.30;;;2.73;;
13279;SDS011;6708;49.814;8.652;2023-05-23T09:53:02;2.93;;;2.70;;
13279;SDS011;6708;49.814;8.652;2023-05-23T09:55:30;2.53;;;2.43;;
13279;SDS011;6708;49.814;8.652;2023-05-23T09:57:58;2.23;;;2.13;;
13279;SDS011;6708;49.814;8.652;2023-05-23T10:00:30;2.47;;;2.33;;
13279;SDS011;6708;49.814;8.652;2023-05-23T10:03:04;2.73;;;2.53;;
13279;SDS011;6708;49.814;8.652;2023-05-23T10:05:39;3.80;;;2.67;;
13279;SDS011;6708;49.814;8.652;2023-05-23T10:08:13;2.80;;;2.60;;
13279;SDS011;6708;49.814;8.652;2023-05-23T10:10:58;2.30;;;2.10;;
13279;SDS011;6708;49.814;8.652;2023-05-23T10:13:55;2.10;;;2.00;;
13279;SDS011;6708;49.814;8.652;2023-05-23T10:16:29;2.40;;;2.30;;
13279;SDS011;6708;49.814;8.652;2023-05-23T10:19:05;2.40;;;2.17;;
13279;SDS011;6708;49.814;8.652;2023-05-23T10:21:37;2.47;;;2.37;;
13279;SDS011;6708;49.814;8.652;2023-05-23T10:24:10;2.50;;;2.40;;
13279;SDS011;6708;49.814;8.652;2023-05-23T10:26:39;2.93;;;2.73;;
13279;SDS011;6708;49.814;8.652;2023-05-23T10:29:07;2.37;;;2.27;;
13279;SDS011;6708;49.814;8.652;2023-05-23T10:31:38;3.60;;;2.23;;
13279;SDS011;6708;49.814;8.652;2023-05-23T10:34:08;2.60;;;2.40;;
13279;SDS011;6708;49.814;8.652;2023-05-23T10:36:46;2.40;;;2.30;;
13279;SDS011;6708;49.814;8.652;2023-05-23T10:39:18;3.43;;;2.40;;
13279;SDS011;6708;49.814;8.652;2023-05-23T10:41:56;2.77;;;2.60;;
13279;SDS011;6708;49.814;8.652;2023-05-23T10:44:28;2.53;;;2.33;;
13279;SDS011;6708;49.814;8.652;2023-05-23T10:47:00;2.70;;;2.50;;
13279;SDS011;6708;49.814;8.652;2023-05-23T10:49:37;2.20;;;2.10;;
13279;SDS011;6708;49.814;8.652;2023-05-23T10:52:10;2.20;;;2.10;;
13279;SDS011;6708;49.814;8.652;2023-05-23T10:54:42;1.70;;;1.70;;
13279;SDS011;6708;49.814;8.652;2023-05-23T10:57:14;2.40;;;2.30;;
13279;SDS011;6708;49.814;8.652;2023-05-23T10:59:44;2.70;;;2.40;;
13279;SDS011;6708;49.814;8.652;2023-05-23T11:02:17;3.00;;;2.80;;
13279;SDS011;6708;49.814;8.652;2023-05-23T11:04:47;2.93;;;2.40;;
13279;SDS011;6708;49.814;8.652;2023-05-23T11:16:25;2.73;;;2.53;;
13279;SDS011;6708;49.814;8.652;2023-05-23T11:21:53;7.93;;;2.50;;
13279;SDS011;6708;49.814;8.652;2023-05-23T11:24:22;2.63;;;2.50;;
13279;SDS011;6708;49.814;8.652;2023-05-23T11:26:51;2.80;;;2.60;;
13279;SDS011;6708;49.814;8.652;2023-05-23T11:29:24;3.43;;;2.73;;
13279;SDS011;6708;49.814;8.652;2023-05-23T11:31:53;3.93;;;2.60;;
13279;SDS011;6708;49.814;8.652;2023-05-23T11:34:26;2.83;;;2.73;;
13279;SDS011;6708;49.814;8.652;2023-05-23T11:36:54;2.90;;;2.70;;
13279;SDS011;6708;49.814;8.652;2023-05-23T11:39:23;3.17;;;2.63;;
13279;SDS011;6708;49.814;8.652;2023-05-23T11:41:57;2.87;;;2.77;;
13279;SDS011;6708;49.814;8.652;2023-05-23T11:44:26;3.17;;;3.00;;
13279;SDS011;6708;49.814;8.652;2023-05-23T11:46:58;2.90;;;2.80;;
13279;SDS011;6708;49.814;8.652;2023-05-23T11:49:30;3.40;;;3.20;;
13279;SDS011;6708;49.814;8.652;2023-05-23T11:52:02;4.50;;;3.00;;
13279;SDS011;6708;49.814;8.652;2023-05-23T11:54:31;3.47;;;3.07;;
13279;SDS011;6708;49.814;8.652;2023-05-23T11:57:00;3.23;;;2.93;;
13279;SDS011;6708;49.814;8.652;2023-05-23T11:59:28;3.90;;;3.70;;
13279;SDS011;6708;49.814;8.652;2023-05-23T12:01:57;3.50;;;3.30;;
13279;SDS011;6708;49.814;8.652;2023-05-23T12:04:25;3.40;;;3.20;;
13279;SDS011;6708;49.814;8.652;2023-05-23T12:06:56;3.47;;;3.20;;
13279;SDS011;6708;49.814;8.652;2023-05-23T12:09:24;3.50;;;3.20;;
13279;SDS011;6708;49.814;8.652;2023-05-23T12:11:53;3.40;;;3.20;;
13279;SDS011;6708;49.814;8.652;2023-05-23T12:14:21;3.60;;;3.30;;
13279;SDS011;6708;49.814;8.652;2023-05-23T12:16:49;3.00;;;2.87;;
13279;SDS011;6708;49.814;8.652;2023-05-23T12:19:19;3.00;;;2.90;;
13279;SDS011;6708;49.814;8.652;2023-05-23T12:21:48;2.77;;;2.57;;
13279;SDS011;6708;49.814;8.652;2023-05-23T12:24:19;2.30;;;2.20;;
13279;SDS011;6708;49.814;8.652;2023-05-23T12:26:48;3.00;;;2.70;;
13279;SDS011;6708;49.814;8.652;2023-05-23T12:29:18;2.70;;;2.50;;
13279;SDS011;6708;49.814;8.652;2023-05-23T12:31:48;2.50;;;2.30;;
13279;SDS011;6708;49.814;8.652;2023-05-23T12:34:18;2.47;;;2.30;;
13279;SDS011;6708;49.814;8.652;2023-05-23T12:36:47;2.60;;;2.50;;
13279;SDS011;6708;49.814;8.652;2023-05-23T12:39:22;3.95;;;2.20;;
13279;SDS011;6708;49.814;8.652;2023-05-23T12:41:55;2.67;;;2.40;;
13279;SDS011;6708;49.814;8.652;2023-05-23T12:44:34;3.00;;;2.67;;
13279;SDS011;6708;49.814;8.652;2023-05-23T12:47:03;2.20;;;2.10;;
13279;SDS011;6708;49.814;8.652;2023-05-23T12:49:31;2.80;;;1.97;;
13279;SDS011;6708;49.814;8.652;2023-05-23T12:52:00;1.73;;;1.63;;
13279;SDS011;6708;49.814;8.652;2023-05-23T12:54:31;2.10;;;2.00;;
13279;SDS011;6708;49.814;8.652;2023-05-23T12:56:59;1.80;;;1.70;;
13279;SDS011;6708;49.814;8.652;2023-05-23T12:59:27;2.27;;;1.93;;
13279;SDS011;6708;49.814;8.652;2023-05-23T13:01:56;1.87;;;1.80;;
13279;SDS011;6708;49.814;8.652;2023-05-23T13:04:25;2.50;;;2.10;;
13279;SDS011;6708;49.814;8.652;2023-05-23T13:06:53;2.50;;;2.40;;
13279;SDS011;6708;49.814;8.652;2023-05-23T13:09:22;3.23;;;3.00;;
13279;SDS011;6708;49.814;8.652;2023-05-23T13:11:53;2.60;;;2.50;;
13279;SDS011;6708;49.814;8.652;2023-05-23T13:14:22;2.57;;;2.40;;
13279;SDS011;6708;49.814;8.652;2023-05-23T13:16:51;3.63;;;2.30;;
13279;SDS011;6708;49.814;8.652;2023-05-23T13:19:19;2.47;;;2.30;;
13279;SDS011;6708;49.814;8.652;2023-05-23T13:21:48;2.30;;;2.20;;
13279;SDS011;6708;49.814;8.652;2023-05-23T13:24:16;2.03;;;1.93;;
13279;SDS011;6708;49.814;8.652;2023-05-23T13:26:44;11.20;;;2.93;;
13279;SDS011;6708;49.814;8.652;2023-05-23T13:29:15;1.90;;;1.80;;
13279;SDS011;6708;49.814;8.652;2023-05-23T13:31:44;1.93;;;1.83;;
13279;SDS011;6708;49.814;8.652;2023-05-23T13:34:12;1.50;;;1.50;;
13279;SDS011;6708;49.814;8.652;2023-05-23T13:36:40;3.17;;;1.50;;
13279;SDS011;6708;49.814;8.652;2023-05-23T13:39:09;1.93;;;1.83;;
13279;SDS011;6708;49.814;8.652;2023-05-23T13:41:37;2.10;;;1.77;;
13279;SDS011;6708;49.814;8.652;2023-05-23T13:44:05;2.07;;;1.97;;
13279;SDS011;6708;49.814;8.652;2023-05-23T13:46:36;1.80;;;1.70;;
13279;SDS011;6708;49.814;8.652;2023-05-23T13:49:05;1.97;;;1.87;;
13279;SDS011;6708;49.814;8.652;2023-05-23T13:51:33;1.93;;;1.83;;
13279;SDS011;6708;49.814;8.652;2023-05-23T13:54:02;2.27;;;1.70;;
13279;SDS011;6708;49.814;8.652;2023-05-23T13:56:30;1.63;;;1.53;;
13279;SDS011;6708;49.814;8.652;2023-05-23T13:58:59;1.43;;;1.30;;
13279;SDS011;6708;49.814;8.652;2023-05-23T14:01:27;1.80;;;1.40;;
13279;SDS011;6708;49.814;8.652;2023-05-23T14:03:59;1.70;;;1.70;;
13279;SDS011;6708;49.814;8.652;2023-05-23T14:06:27;1.90;;;1.80;;
13279;SDS011;6708;49.814;8.652;2023-05-23T14:08:56;1.50;;;1.50;;
13279;SDS011;6708;49.814;8.652;2023-05-23T14:11:24;1.83;;;1.73;;
13279;SDS011;6708;49.814;8.652;2023-05-23T14:13:53;1.40;;;1.40;;
13279;SDS011;6708;49.814;8.652;2023-05-23T14:16:21;1.70;;;1.60;;
13279;SDS011;6708;49.814;8.652;2023-05-23T14:18:49;1.73;;;1.63;;
13279;SDS011;6708;49.814;8.652;2023-05-23T14:21:20;1.60;;;1.50;;
13279;SDS011;6708;49.814;8.652;2023-05-23T14:23:49;2.30;;;2.10;;
13279;SDS011;6708;49.814;8.652;2023-05-23T14:26:17;2.10;;;2.00;;
13279;SDS011;6708;49.814;8.652;2023-05-23T14:28:46;2.13;;;2.03;;
13279;SDS011;6708;49.814;8.652;2023-05-23T14:31:14;1.90;;;1.80;;
13279;SDS011;6708;49.814;8.652;2023-05-23T14:33:43;3.57;;;2.27;;
13279;SDS011;6708;49.814;8.652;2023-05-23T14:36:11;2.80;;;2.60;;
13279;SDS011;6708;49.814;8.652;2023-05-23T14:38:42;2.57;;;2.37;;
13279;SDS011;6708;49.814;8.652;2023-05-23T14:41:12;3.13;;;2.60;;
13279;SDS011;6708;49.814;8.652;2023-05-23T14:43:40;2.97;;;2.73;;
13279;SDS011;6708;49.814;8.652;2023-05-23T14:46:09;4.40;;;2.67;;
13279;SDS011;6708;49.814;8.652;2023-05-23T14:48:39;6.10;;;2.70;;
13279;SDS011;6708;49.814;8.652;2023-05-23T14:51:07;2.67;;;2.47;;
13279;SDS011;6708;49.814;8.652;2023-05-23T14:53:36;2.80;;;2.60;;
13279;SDS011;6708;49.814;8.652;2023-05-23T14:56:07;2.40;;;2.30;;
13279;SDS011;6708;49.814;8.652;2023-05-23T14:58:35;3.17;;;2.87;;
13279;SDS011;6708;49.814;8.652;2023-05-23T15:01:05;3.30;;;3.10;;
13279;SDS011;6708;49.814;8.652;2023-05-23T15:03:33;3.70;;;3.40;;
13279;SDS011;6708;49.814;8.652;2023-05-23T15:06:02;3.40;;;2.80;;
13279;SDS011;6708;49.814;8.652;2023-05-23T15:08:31;3.27;;;3.07;;
13279;SDS011;6708;49.814;8.652;2023-05-23T15:11:01;3.70;;;3.47;;
13279;SDS011;6708;49.814;8.652;2023-05-23T15:13:32;3.93;;;3.63;;
13279;SDS011;6708;49.814;8.652;2023-05-23T15:16:00;9.47;;;4.03;;
13279;SDS011;6708;49.814;8.652;2023-05-23T15:18:29;4.43;;;4.03;;
13279;SDS011;6708;49.814;8.652;2023-05-23T15:20:57;6.17;;;3.43;;
13279;SDS011;6708;49.814;8.652;2023-05-23T15:23:26;5.23;;;4.30;;
13279;SDS011;6708;49.814;8.652;2023-05-23T15:25:54;4.73;;;4.33;;
13279;SDS011;6708;49.814;8.652;2023-05-23T15:28:22;4.77;;;4.40;;